Terminal Aerodrome Forecast
Issued by NWS

Home | Current Version | Previous Version | Text Only | Print | Product List | Glossary On
Versions: 1 2 3 4 5 6 7 8 9 10 11 12 13 14 15 16 17 18 19 20 21 22 23 24 25 26 27 28 29 30 31 32 33 34
000
FTUS44 KHGX 011725
TAFUTS
TAF
KUTS 011725Z 0118/0218 VRB05KT P6SM SCT020 BKN035
      TEMPO 0118/0120 BKN020
     FM020200 VRB03KT P6SM SCT030 SCT250
      TEMPO 0210/0214 BKN010
     FM021400 VRB03KT P6SM SCT020
      TEMPO 0214/0216 BKN025
     FM021700 VRB03KT P6SM BKN035=

USA.gov is the U.S. government's official web portal to all federal, state and local government web resources and services.